KMIE/MIE METAR and TAF weather

Enter ICAO airport designator
Station Type Date Time Source
KMIE METAR 2019/12/12 08:53 UTC NOAA

KMIE 120853Z AUTO 15006KT 7SM CLR M04/M08 A3050 RMK AO2 SLP339 T10441083 56002


Station Type Date Time Source
KMIE Decoded METAR 2019/12/12 08:53 UTC NOAA

MUNCIE DELAWARE JOHNSON, IN, United States (KMIE) 40-14N 85-24W 285M
Dec 12, 2019 - 03:53 AM EST / 2019.12.12 0853 UTC
Wind: from the SSE (150 degrees) at 7 MPH (6 KT):0
Visibility: 7 mile(s):0
Sky conditions: clear
Temperature: 24.1 F (-4.4 C)
Windchill: 15 F (-9 C):1
Dew Point: 17.1 F (-8.3 C)
Relative Humidity: 74%
Pressure (altimeter): 30.5 in. Hg (1032 hPa)
Pressure tendency: 0.01 inches (0.2 hPa) lower than three hours ago
ob: KMIE 120853Z AUTO 15006KT 7SM CLR M04/M08 A3050 RMK AO2 SLP339 T10441083 56002
cycle: 9

Station Type Date Time Source
KMIE TAF UTC NOAA

Error!

Example: see airport list